createdAt,value
2023-05-07T00:00:06.646Z,996.63
2023-05-07T00:01:06.643Z,996.67
2023-05-07T00:02:06.607Z,996.62
2023-05-07T00:03:06.757Z,996.62
2023-05-07T00:04:06.834Z,996.64
2023-05-07T00:05:06.717Z,996.62
2023-05-07T00:06:06.587Z,996.58
2023-05-07T00:07:06.697Z,996.58
2023-05-07T00:08:06.639Z,996.65
2023-05-07T00:09:06.618Z,996.63
2023-05-07T00:10:06.557Z,996.60
2023-05-07T00:11:06.548Z,996.53
2023-05-07T00:12:06.542Z,996.62
2023-05-07T00:13:06.619Z,996.61
2023-05-07T00:14:06.563Z,996.60
2023-05-07T00:15:06.513Z,996.61
2023-05-07T00:16:06.509Z,996.58
2023-05-07T00:17:06.535Z,996.59
2023-05-07T00:18:06.676Z,996.58
2023-05-07T00:19:06.496Z,996.51
2023-05-07T00:20:06.541Z,996.50
2023-05-07T00:21:06.474Z,996.57
2023-05-07T00:22:07.494Z,996.57
2023-05-07T00:23:06.452Z,996.59
2023-05-07T00:24:06.536Z,996.53
2023-05-07T00:25:06.507Z,996.57
2023-05-07T00:26:06.430Z,996.65
2023-05-07T00:27:06.461Z,996.58
2023-05-07T00:28:06.440Z,996.53
2023-05-07T00:29:06.401Z,996.56
2023-05-07T00:30:06.394Z,996.55
2023-05-07T00:31:06.415Z,996.63
2023-05-07T00:32:06.461Z,996.57
2023-05-07T00:33:06.390Z,996.49
2023-05-07T00:34:06.381Z,996.60
2023-05-07T00:35:06.359Z,996.58
2023-05-07T00:36:06.938Z,996.50
2023-05-07T00:37:06.916Z,996.51
2023-05-07T00:38:07.335Z,996.55
2023-05-07T00:39:06.341Z,996.51
2023-05-07T00:40:06.501Z,996.44
2023-05-07T00:41:06.342Z,996.50
2023-05-07T00:42:06.302Z,996.47
2023-05-07T00:43:06.309Z,996.47
2023-05-07T00:44:06.293Z,996.54
2023-05-07T00:45:06.279Z,996.56
2023-05-07T00:46:06.425Z,996.54
2023-05-07T00:47:06.346Z,996.51
2023-05-07T00:48:06.298Z,996.58
2023-05-07T00:49:06.265Z,996.55
2023-05-07T00:50:06.304Z,996.53
2023-05-07T00:51:06.309Z,996.52
2023-05-07T00:52:06.257Z,996.56
2023-05-07T00:53:06.232Z,996.51
2023-05-07T00:54:06.215Z,996.49
2023-05-07T00:55:06.289Z,996.47
2023-05-07T00:56:06.201Z,996.46
2023-05-07T00:57:06.204Z,996.43
2023-05-07T00:58:06.181Z,996.44
2023-05-07T00:59:06.206Z,996.36
2023-05-07T01:00:06.262Z,996.44
2023-05-07T01:01:06.265Z,996.36
2023-05-07T01:02:06.157Z,996.34
2023-05-07T01:03:06.202Z,996.35
2023-05-07T01:04:06.169Z,996.43
2023-05-07T01:05:06.174Z,996.39
2023-05-07T01:06:06.116Z,996.37
2023-05-07T01:07:06.104Z,996.44
2023-05-07T01:08:06.184Z,996.33
2023-05-07T01:09:06.165Z,996.39
2023-05-07T01:10:06.116Z,996.31
2023-05-07T01:11:06.090Z,996.35
2023-05-07T01:12:07.086Z,996.29
2023-05-07T01:13:06.767Z,996.31
2023-05-07T01:14:06.089Z,996.32
2023-05-07T01:15:06.055Z,996.32
2023-05-07T01:16:06.045Z,996.32
2023-05-07T01:17:06.069Z,996.35
2023-05-07T01:18:06.097Z,996.29
2023-05-07T01:19:06.049Z,996.35
2023-05-07T01:20:06.022Z,996.39
2023-05-07T01:21:06.020Z,996.35
2023-05-07T01:22:05.998Z,996.38
2023-05-07T01:23:06.008Z,996.34
2023-05-07T01:24:06.050Z,996.32
2023-05-07T01:25:05.988Z,996.31
2023-05-07T01:26:05.998Z,996.31
2023-05-07T01:27:05.968Z,996.30
2023-05-07T01:28:06.022Z,996.40
2023-05-07T01:29:05.963Z,996.39
2023-05-07T01:30:05.976Z,996.39
2023-05-07T01:31:05.956Z,996.36
2023-05-07T01:32:05.910Z,996.46
2023-05-07T01:33:05.954Z,996.40
2023-05-07T01:34:05.929Z,996.47
2023-05-07T01:35:05.906Z,996.44
2023-05-07T01:36:05.891Z,996.41
2023-05-07T01:37:05.961Z,996.43
2023-05-07T01:38:05.922Z,996.31
2023-05-07T01:39:05.885Z,996.37
2023-05-07T01:40:05.858Z,996.39
2023-05-07T01:41:05.852Z,996.31
2023-05-07T01:42:05.838Z,996.37
2023-05-07T01:43:05.928Z,996.36
2023-05-07T01:44:06.071Z,996.41
2023-05-07T01:45:05.953Z,996.33
2023-05-07T01:46:05.829Z,996.40
2023-05-07T01:47:05.840Z,996.41
2023-05-07T01:48:05.854Z,996.40
2023-05-07T01:49:05.790Z,996.36
2023-05-07T01:50:05.772Z,996.35
2023-05-07T01:51:05.784Z,996.38
2023-05-07T01:52:05.789Z,996.40
2023-05-07T01:53:05.748Z,996.39
2023-05-07T01:54:05.736Z,996.43
2023-05-07T01:55:05.725Z,996.34
2023-05-07T01:56:05.735Z,996.41
2023-05-07T01:57:05.739Z,996.39
2023-05-07T01:58:05.730Z,996.38
2023-05-07T01:59:05.704Z,996.35
2023-05-07T02:00:05.763Z,996.34
2023-05-07T02:01:05.748Z,996.34
2023-05-07T02:02:05.730Z,996.38
2023-05-07T02:03:05.746Z,996.41
2023-05-07T02:04:05.724Z,996.34
2023-05-07T02:05:05.669Z,996.37
2023-05-07T02:06:05.674Z,996.42
2023-05-07T02:07:05.729Z,996.41
2023-05-07T02:08:05.631Z,996.47
2023-05-07T02:09:05.661Z,996.41
2023-05-07T02:10:05.623Z,996.39
2023-05-07T02:11:05.645Z,996.42
2023-05-07T02:12:05.628Z,996.41
2023-05-07T02:13:05.648Z,996.28
2023-05-07T02:14:05.601Z,996.30
2023-05-07T02:15:05.626Z,996.31
2023-05-07T02:16:05.781Z,996.30
2023-05-07T02:17:05.593Z,996.37
2023-05-07T02:18:05.598Z,996.31
2023-05-07T02:19:05.568Z,996.32
2023-05-07T02:20:05.577Z,996.37
2023-05-07T02:21:05.623Z,996.42
2023-05-07T02:22:05.532Z,996.42
2023-05-07T02:23:05.522Z,996.41
2023-05-07T02:24:05.519Z,996.40
2023-05-07T02:25:05.548Z,996.45
2023-05-07T02:26:05.503Z,996.47
2023-05-07T02:27:05.496Z,996.37
2023-05-07T02:28:05.516Z,996.41
2023-05-07T02:29:05.478Z,996.39
2023-05-07T02:30:05.511Z,996.32
2023-05-07T02:31:05.477Z,996.35
2023-05-07T02:32:05.619Z,996.39
2023-05-07T02:33:05.462Z,996.46
2023-05-07T02:34:05.463Z,996.47
2023-05-07T02:35:05.524Z,996.40
2023-05-07T02:36:05.438Z,996.48
2023-05-07T02:37:05.434Z,996.39
2023-05-07T02:38:05.417Z,996.39
2023-05-07T02:39:05.434Z,996.36
2023-05-07T02:40:05.568Z,996.39
2023-05-07T02:41:06.365Z,996.31
2023-05-07T02:42:05.388Z,996.30
2023-05-07T02:43:05.379Z,996.35
2023-05-07T02:44:05.390Z,996.29
2023-05-07T02:45:05.509Z,996.27
2023-05-07T02:46:05.397Z,996.37
2023-05-07T02:47:05.360Z,996.36
2023-05-07T02:48:05.499Z,996.29
2023-05-07T02:49:05.473Z,996.40
2023-05-07T02:50:05.313Z,996.28
2023-05-07T02:51:05.317Z,996.32
2023-05-07T02:52:05.345Z,996.37
2023-05-07T02:53:05.363Z,996.32
2023-05-07T02:54:05.318Z,996.43
2023-05-07T02:55:05.312Z,996.37
2023-05-07T02:56:05.301Z,996.38
2023-05-07T02:57:06.276Z,996.41
2023-05-07T02:58:06.172Z,996.33
2023-05-07T02:59:05.255Z,996.38
2023-05-07T03:00:05.242Z,996.30
2023-05-07T03:01:06.300Z,996.32
2023-05-07T03:02:05.261Z,996.39
2023-05-07T03:03:05.296Z,996.38
2023-05-07T03:04:05.272Z,996.33
2023-05-07T03:05:05.225Z,996.40
2023-05-07T03:06:05.208Z,996.43
2023-05-07T03:07:05.230Z,996.51
2023-05-07T03:08:05.194Z,996.47
2023-05-07T03:09:05.173Z,996.39
2023-05-07T03:10:05.173Z,996.47
2023-05-07T03:11:05.172Z,996.43
2023-05-07T03:12:05.185Z,996.49
2023-05-07T03:13:05.196Z,996.47
2023-05-07T03:14:05.182Z,996.48
2023-05-07T03:15:05.161Z,996.53
2023-05-07T03:16:05.181Z,996.53
2023-05-07T03:17:05.148Z,996.44
2023-05-07T03:18:05.223Z,996.50
2023-05-07T03:19:05.233Z,996.55
2023-05-07T03:20:05.269Z,996.51
2023-05-07T03:21:05.159Z,996.49
2023-05-07T03:22:05.103Z,996.53
2023-05-07T03:23:05.074Z,996.48
2023-05-07T03:24:05.086Z,996.43
2023-05-07T03:25:05.059Z,996.46
2023-05-07T03:26:05.071Z,996.58
2023-05-07T03:27:05.078Z,996.64
2023-05-07T03:28:05.036Z,996.57
2023-05-07T03:29:05.024Z,996.56
2023-05-07T03:30:05.041Z,996.55
2023-05-07T03:31:05.070Z,996.56
2023-05-07T03:32:05.010Z,996.51
2023-05-07T03:33:05.070Z,996.58
2023-05-07T03:34:04.992Z,996.53
2023-05-07T03:35:05.802Z,996.52
2023-05-07T03:36:05.173Z,996.55
2023-05-07T03:37:04.970Z,996.61
2023-05-07T03:38:04.953Z,996.61
2023-05-07T03:39:04.950Z,996.65
2023-05-07T03:40:05.081Z,996.55
2023-05-07T03:41:04.936Z,996.62
2023-05-07T03:42:04.930Z,996.57
2023-05-07T03:43:04.923Z,996.64
2023-05-07T03:44:04.915Z,996.51
2023-05-07T03:45:04.928Z,996.56
2023-05-07T03:46:04.917Z,996.66
2023-05-07T03:47:05.871Z,996.69
2023-05-07T03:48:04.905Z,996.68
2023-05-07T03:49:04.868Z,996.71
2023-05-07T03:50:04.896Z,996.72
2023-05-07T03:51:04.858Z,996.66
2023-05-07T03:52:04.930Z,996.77
2023-05-07T03:53:04.866Z,996.78
2023-05-07T03:54:04.876Z,996.65
2023-05-07T03:55:04.860Z,996.76
2023-05-07T03:56:04.832Z,996.78
2023-05-07T03:57:04.912Z,996.76
2023-05-07T03:58:04.829Z,996.76
2023-05-07T03:59:04.841Z,996.71
2023-05-07T04:00:04.817Z,996.80
2023-05-07T04:01:04.875Z,996.75
2023-05-07T04:02:05.682Z,996.75
2023-05-07T04:03:04.888Z,996.77
2023-05-07T04:04:04.970Z,996.84
2023-05-07T04:05:04.758Z,996.79
2023-05-07T04:06:04.749Z,996.89
2023-05-07T04:07:05.739Z,996.84
2023-05-07T04:08:04.916Z,996.97
2023-05-07T04:09:04.750Z,996.87
2023-05-07T04:10:04.716Z,996.91
2023-05-07T04:11:04.732Z,996.87
2023-05-07T04:12:04.706Z,996.89
2023-05-07T04:13:05.266Z,996.95
2023-05-07T04:14:04.782Z,996.95
2023-05-07T04:15:04.681Z,996.91
2023-05-07T04:16:04.684Z,996.87
2023-05-07T04:17:04.750Z,996.97
2023-05-07T04:18:04.729Z,997.00
2023-05-07T04:19:04.664Z,996.97
2023-05-07T04:20:04.643Z,996.95
2023-05-07T04:21:04.639Z,996.95
2023-05-07T04:22:05.655Z,996.91
2023-05-07T04:23:04.663Z,996.93
2023-05-07T04:24:04.673Z,996.95
2023-05-07T04:25:04.687Z,996.81
2023-05-07T04:26:04.615Z,996.98
2023-05-07T04:27:04.627Z,996.93
2023-05-07T04:28:04.609Z,996.86
2023-05-07T04:29:04.636Z,996.84
2023-05-07T04:30:04.573Z,996.92
2023-05-07T04:31:04.596Z,996.86
2023-05-07T04:32:04.677Z,996.96
2023-05-07T04:33:04.627Z,996.88
2023-05-07T04:34:04.539Z,996.79
2023-05-07T04:35:04.539Z,996.83
2023-05-07T04:36:04.573Z,996.86
2023-05-07T04:37:04.606Z,996.89
2023-05-07T04:38:04.511Z,996.83
2023-05-07T04:39:04.598Z,996.82
2023-05-07T04:40:04.575Z,996.89
2023-05-07T04:41:04.538Z,996.87
2023-05-07T04:42:04.493Z,996.91
2023-05-07T04:43:04.468Z,996.96
2023-05-07T04:44:04.470Z,996.95
2023-05-07T04:45:04.472Z,997.00
2023-05-07T04:46:04.500Z,997.03
2023-05-07T04:47:04.452Z,996.98
2023-05-07T04:48:04.533Z,997.00
2023-05-07T04:49:04.427Z,997.10
2023-05-07T04:50:04.449Z,997.10
2023-05-07T04:51:04.436Z,997.08
2023-05-07T04:52:04.425Z,997.18
2023-05-07T04:53:04.394Z,997.06
2023-05-07T04:54:04.383Z,997.13
2023-05-07T04:55:04.452Z,997.16
2023-05-07T04:56:04.396Z,997.14
2023-05-07T04:57:04.363Z,997.16
2023-05-07T04:58:04.357Z,997.18
2023-05-07T04:59:04.360Z,997.25
2023-05-07T05:00:04.376Z,997.23
2023-05-07T05:01:04.418Z,997.20
2023-05-07T05:02:04.346Z,997.20
2023-05-07T05:03:04.363Z,997.25
2023-05-07T05:04:04.393Z,997.21
2023-05-07T05:05:04.327Z,997.26
2023-05-07T05:06:04.396Z,997.18
2023-05-07T05:07:04.341Z,997.17
2023-05-07T05:08:04.293Z,997.26
2023-05-07T05:09:04.321Z,997.23
2023-05-07T05:10:04.299Z,997.27
2023-05-07T05:11:04.280Z,997.19
2023-05-07T05:12:04.499Z,997.24
2023-05-07T05:13:04.279Z,997.31
2023-05-07T05:14:04.270Z,997.23
2023-05-07T05:15:04.230Z,997.37
2023-05-07T05:16:04.270Z,997.28
2023-05-07T05:17:04.234Z,997.33
2023-05-07T05:18:04.259Z,997.29
2023-05-07T05:19:04.245Z,997.30
2023-05-07T05:20:04.275Z,997.39
2023-05-07T05:21:04.203Z,997.25
2023-05-07T05:22:04.230Z,997.34
2023-05-07T05:23:04.232Z,997.32
2023-05-07T05:24:04.178Z,997.29
2023-05-07T05:25:04.212Z,997.42
2023-05-07T05:26:04.160Z,997.38
2023-05-07T05:27:04.157Z,997.36
2023-05-07T05:28:04.215Z,997.24
2023-05-07T05:29:04.126Z,997.33
2023-05-07T05:30:04.131Z,997.28
2023-05-07T05:31:04.123Z,997.41
2023-05-07T05:32:04.280Z,997.35
2023-05-07T05:33:04.167Z,997.38
2023-05-07T05:34:04.106Z,997.30
2023-05-07T05:35:04.082Z,997.30
2023-05-07T05:36:04.087Z,997.32
2023-05-07T05:37:04.096Z,997.46
2023-05-07T05:38:04.065Z,997.35
2023-05-07T05:40:14.582Z,997.32
2023-05-07T05:41:14.603Z,997.30
2023-05-07T05:42:14.617Z,997.36
2023-05-07T05:43:14.731Z,997.32
2023-05-07T05:44:14.594Z,997.30
2023-05-07T05:45:14.572Z,997.36
2023-05-07T05:46:14.796Z,997.34
2023-05-07T05:47:14.576Z,997.34
2023-05-07T05:48:14.632Z,997.30
2023-05-07T05:49:14.547Z,997.35
2023-05-07T05:50:14.541Z,997.30
2023-05-07T05:51:14.553Z,997.42
2023-05-07T05:52:15.671Z,997.48
2023-05-07T05:53:15.643Z,997.31
2023-05-07T05:54:15.648Z,997.40
2023-05-07T05:55:15.650Z,997.40
2023-05-07T05:56:15.662Z,997.48
2023-05-07T05:57:15.607Z,997.42
2023-05-07T05:58:15.606Z,997.44
2023-05-07T05:59:15.626Z,997.43
2023-05-07T06:00:15.653Z,997.39
2023-05-07T06:01:15.621Z,997.46
2023-05-07T06:02:15.726Z,997.45
2023-05-07T06:03:15.615Z,997.50
2023-05-07T06:04:15.561Z,997.46
2023-05-07T06:05:15.633Z,997.50
2023-05-07T06:06:15.569Z,997.52
2023-05-07T06:07:15.535Z,997.59
2023-05-07T06:08:15.529Z,997.59
2023-05-07T06:09:15.796Z,997.59
2023-05-07T06:10:16.538Z,997.54
2023-05-07T06:11:15.509Z,997.61
2023-05-07T06:12:15.499Z,997.62
2023-05-07T06:13:15.535Z,997.56
2023-05-07T06:14:15.480Z,997.53
2023-05-07T06:15:15.550Z,997.55
2023-05-07T06:16:15.546Z,997.58
2023-05-07T06:17:15.463Z,997.60
2023-05-07T06:18:16.350Z,997.64
2023-05-07T06:19:15.476Z,997.64
2023-05-07T06:20:15.466Z,997.64
2023-05-07T06:21:15.479Z,997.62
2023-05-07T06:22:15.422Z,997.58
2023-05-07T06:23:17.647Z,997.62
2023-05-07T06:24:16.494Z,997.50
2023-05-07T06:25:15.401Z,997.58
2023-05-07T06:26:15.389Z,997.63
2023-05-07T06:27:15.384Z,997.64
2023-05-07T06:28:15.376Z,997.69
2023-05-07T06:29:15.394Z,997.65
2023-05-07T06:30:15.361Z,997.64
2023-05-07T06:31:15.434Z,997.58
2023-05-07T06:32:15.400Z,997.60
2023-05-07T06:33:15.377Z,997.67
2023-05-07T06:34:15.346Z,997.61
2023-05-07T06:35:15.402Z,997.66
2023-05-07T06:36:15.317Z,997.65
2023-05-07T06:37:15.310Z,997.70
2023-05-07T06:38:15.325Z,997.71
2023-05-07T06:39:16.287Z,997.75
2023-05-07T06:40:15.284Z,997.68
2023-05-07T06:41:15.277Z,997.81
2023-05-07T06:42:15.268Z,997.76
2023-05-07T06:43:15.284Z,997.80
2023-05-07T06:44:15.256Z,997.80
2023-05-07T06:45:15.239Z,997.78
2023-05-07T06:46:15.263Z,997.80
2023-05-07T06:47:16.406Z,997.75
2023-05-07T06:48:16.239Z,997.76
2023-05-07T06:49:15.206Z,997.75
2023-05-07T06:50:15.228Z,997.73
2023-05-07T06:51:15.206Z,997.83
2023-05-07T06:52:15.219Z,997.79
2023-05-07T06:53:15.178Z,997.77
2023-05-07T06:54:15.195Z,997.79
2023-05-07T06:55:15.172Z,997.81
2023-05-07T06:56:15.160Z,997.80
2023-05-07T06:57:15.177Z,997.78
2023-05-07T06:58:15.144Z,997.78
2023-05-07T06:59:15.170Z,997.82
2023-05-07T07:00:15.132Z,997.76
2023-05-07T07:01:15.191Z,997.82
2023-05-07T07:02:16.999Z,997.80
2023-05-07T07:03:15.160Z,997.79
2023-05-07T07:04:15.120Z,997.78
2023-05-07T07:05:15.100Z,997.84
2023-05-07T07:06:15.112Z,997.80
2023-05-07T07:07:15.092Z,997.80
2023-05-07T07:08:15.063Z,997.80
2023-05-07T07:09:15.061Z,997.76
2023-05-07T07:10:15.065Z,997.77
2023-05-07T07:11:15.070Z,997.80
2023-05-07T07:12:15.041Z,997.82
2023-05-07T07:13:15.027Z,997.75
2023-05-07T07:14:15.007Z,997.74
2023-05-07T07:15:15.011Z,997.86
2023-05-07T07:16:15.061Z,997.82
2023-05-07T07:17:14.990Z,997.79
2023-05-07T07:18:14.984Z,997.77
2023-05-07T07:19:15.025Z,997.85
2023-05-07T07:20:15.083Z,997.85
2023-05-07T07:21:14.981Z,997.77
2023-05-07T07:22:14.949Z,997.73
2023-05-07T07:23:14.970Z,997.69
2023-05-07T07:24:14.963Z,997.74
2023-05-07T07:25:14.997Z,997.66
2023-05-07T07:26:14.945Z,997.72
2023-05-07T07:27:14.915Z,997.73
2023-05-07T07:28:14.907Z,997.70
2023-05-07T07:29:14.925Z,997.80
2023-05-07T07:30:14.915Z,997.89
2023-05-07T07:31:14.905Z,997.87
2023-05-07T07:32:14.881Z,997.87
2023-05-07T07:33:14.863Z,997.78
2023-05-07T07:34:14.883Z,997.83
2023-05-07T07:35:15.085Z,997.86
2023-05-07T07:36:14.840Z,997.85
2023-05-07T07:37:14.857Z,997.86
2023-05-07T07:38:14.837Z,997.88
2023-05-07T07:39:14.852Z,997.85
2023-05-07T07:40:14.841Z,997.88
2023-05-07T07:41:15.812Z,997.77
2023-05-07T07:42:14.803Z,997.74
2023-05-07T07:43:14.869Z,997.74
2023-05-07T07:44:15.927Z,997.83
2023-05-07T07:45:15.782Z,997.77
2023-05-07T07:46:14.808Z,997.79
2023-05-07T07:47:14.793Z,997.85
2023-05-07T07:48:14.795Z,997.80
2023-05-07T07:49:14.784Z,997.76
2023-05-07T07:50:21.976Z,997.84
2023-05-07T07:51:16.788Z,997.75
2023-05-07T07:52:14.726Z,997.86
2023-05-07T07:53:14.730Z,997.89
2023-05-07T07:54:14.760Z,997.95
2023-05-07T07:55:14.705Z,997.90
2023-05-07T07:56:14.778Z,997.97
2023-05-07T07:57:14.697Z,997.87
2023-05-07T07:58:14.700Z,997.77
2023-05-07T07:59:14.704Z,997.82
2023-05-07T08:00:14.695Z,997.88
2023-05-07T08:01:14.656Z,997.89
2023-05-07T08:02:14.721Z,997.94
2023-05-07T08:03:14.789Z,997.88
2023-05-07T08:04:14.693Z,997.97
2023-05-07T08:05:14.643Z,997.93
2023-05-07T08:06:15.306Z,998.02
2023-05-07T08:07:15.664Z,997.91
2023-05-07T08:08:14.632Z,997.98
2023-05-07T08:09:14.612Z,997.97
2023-05-07T08:10:14.612Z,997.92
2023-05-07T08:11:14.584Z,997.97
2023-05-07T08:12:14.571Z,997.87
2023-05-07T08:13:14.656Z,997.89
2023-05-07T08:14:14.570Z,998.00
2023-05-07T08:15:14.555Z,997.91
2023-05-07T08:16:14.638Z,997.85
2023-05-07T08:17:14.640Z,997.84
2023-05-07T08:18:14.617Z,997.84
2023-05-07T08:19:14.526Z,997.88
2023-05-07T08:20:14.651Z,997.93
2023-05-07T08:21:14.567Z,997.85
2023-05-07T08:22:14.546Z,997.85
2023-05-07T08:23:14.634Z,997.94
2023-05-07T08:24:14.507Z,998.00
2023-05-07T08:25:14.492Z,997.92
2023-05-07T08:26:14.531Z,997.88
2023-05-07T08:27:14.494Z,997.99
2023-05-07T08:28:14.486Z,997.73
2023-05-07T08:29:14.469Z,997.93
2023-05-07T08:30:14.478Z,997.92
2023-05-07T08:31:14.575Z,997.97
2023-05-07T08:32:14.453Z,997.94
2023-05-07T08:33:14.458Z,997.92
2023-05-07T08:34:14.462Z,997.83
2023-05-07T08:35:14.414Z,997.92
2023-05-07T08:36:14.447Z,997.88
2023-05-07T08:37:14.421Z,997.84
2023-05-07T08:38:14.400Z,997.78
2023-05-07T08:39:14.393Z,997.88
2023-05-07T08:40:14.798Z,997.82
2023-05-07T08:41:15.442Z,997.86
2023-05-07T08:42:14.371Z,997.83
2023-05-07T08:43:15.354Z,997.91
2023-05-07T08:44:14.350Z,997.90
2023-05-07T08:45:15.408Z,997.93
2023-05-07T08:46:15.239Z,997.91
2023-05-07T08:47:14.314Z,997.76
2023-05-07T08:48:14.312Z,997.86
2023-05-07T08:49:14.314Z,997.90
2023-05-07T08:50:14.333Z,997.91
2023-05-07T08:51:14.280Z,998.00
2023-05-07T08:52:14.288Z,998.04
2023-05-07T08:53:14.262Z,997.96
2023-05-07T08:54:14.335Z,997.98
2023-05-07T08:55:15.431Z,998.07
2023-05-07T08:56:14.279Z,998.09
2023-05-07T08:57:14.282Z,998.07
2023-05-07T08:58:14.236Z,998.17
2023-05-07T08:59:14.289Z,998.04
2023-05-07T09:00:14.281Z,998.03
2023-05-07T09:01:14.320Z,998.06
2023-05-07T09:02:14.288Z,998.06
2023-05-07T09:03:14.271Z,998.06
2023-05-07T09:04:14.384Z,998.08
2023-05-07T09:05:14.288Z,997.99
2023-05-07T09:06:14.178Z,998.09
2023-05-07T09:07:14.156Z,998.00
2023-05-07T09:08:14.171Z,998.05
2023-05-07T09:09:14.181Z,998.14
2023-05-07T09:10:14.153Z,998.13
2023-05-07T09:11:14.174Z,997.95
2023-05-07T09:12:14.140Z,998.16
2023-05-07T09:13:14.220Z,998.17
2023-05-07T09:14:14.130Z,998.15
2023-05-07T09:15:14.173Z,998.11
2023-05-07T09:16:14.158Z,998.10
2023-05-07T09:17:14.091Z,998.04
2023-05-07T09:18:16.538Z,998.07
2023-05-07T09:19:14.107Z,998.05
2023-05-07T09:20:14.054Z,998.13
2023-05-07T09:21:15.057Z,998.11
2023-05-07T09:22:14.042Z,998.02
2023-05-07T09:23:14.056Z,998.13
2023-05-07T09:24:14.034Z,998.07
2023-05-07T09:25:14.332Z,998.13
2023-05-07T09:26:14.052Z,998.13
2023-05-07T09:27:14.066Z,998.16
2023-05-07T09:28:14.016Z,998.07
2023-05-07T09:29:13.987Z,998.12
2023-05-07T09:30:14.060Z,998.08
2023-05-07T09:31:14.030Z,998.12
2023-05-07T09:32:14.730Z,998.11
2023-05-07T09:33:13.989Z,998.10
2023-05-07T09:34:13.981Z,997.98
2023-05-07T09:35:13.935Z,998.09
2023-05-07T09:36:13.935Z,998.08
2023-05-07T09:37:13.952Z,998.15
2023-05-07T09:38:13.932Z,998.14
2023-05-07T09:39:13.916Z,998.16
2023-05-07T09:40:13.928Z,998.06
2023-05-07T09:41:13.899Z,998.05
2023-05-07T09:42:13.925Z,998.02
2023-05-07T09:43:13.892Z,998.11
2023-05-07T09:44:13.871Z,998.16
2023-05-07T09:45:13.967Z,998.01
2023-05-07T09:46:14.071Z,998.17
2023-05-07T09:47:14.433Z,998.11
2023-05-07T09:48:13.840Z,998.04
2023-05-07T09:49:13.828Z,998.11
2023-05-07T09:50:13.830Z,998.01
2023-05-07T09:51:14.393Z,998.13
2023-05-07T09:52:14.728Z,998.03
2023-05-07T09:53:13.922Z,998.11
2023-05-07T09:54:13.799Z,998.11
2023-05-07T09:55:13.833Z,998.12
2023-05-07T09:56:13.809Z,998.06
2023-05-07T09:57:13.771Z,998.07
2023-05-07T09:58:13.768Z,998.03
2023-05-07T09:59:13.891Z,998.05
2023-05-07T10:00:13.780Z,998.09
2023-05-07T10:01:13.804Z,997.87
2023-05-07T10:02:13.772Z,997.97
2023-05-07T10:03:13.893Z,997.96
2023-05-07T10:04:13.730Z,997.95
2023-05-07T10:05:13.860Z,997.97
2023-05-07T10:06:13.771Z,998.00
2023-05-07T10:07:13.691Z,998.00
2023-05-07T10:08:13.680Z,997.99
2023-05-07T10:09:13.681Z,997.89
2023-05-07T10:10:13.707Z,998.00
2023-05-07T10:11:13.692Z,997.96
2023-05-07T10:12:13.703Z,997.98
2023-05-07T10:13:13.732Z,997.97
2023-05-07T10:14:13.645Z,998.02
2023-05-07T10:15:13.955Z,997.96
2023-05-07T10:16:13.631Z,997.99
2023-05-07T10:17:13.628Z,997.92
2023-05-07T10:18:13.760Z,997.98
2023-05-07T10:19:13.638Z,998.01
2023-05-07T10:20:13.623Z,998.07
2023-05-07T10:21:13.585Z,997.96
2023-05-07T10:22:13.582Z,998.09
2023-05-07T10:23:13.586Z,997.94
2023-05-07T10:24:13.588Z,997.94
2023-05-07T10:25:13.803Z,997.95
2023-05-07T10:26:13.550Z,997.87
2023-05-07T10:27:13.536Z,997.85
2023-05-07T10:28:13.537Z,997.81
2023-05-07T10:29:13.553Z,997.90
2023-05-07T10:30:13.551Z,997.98
2023-05-07T10:31:13.586Z,997.94
2023-05-07T10:32:13.507Z,998.00
2023-05-07T10:33:13.525Z,997.80
2023-05-07T10:34:13.535Z,997.93
2023-05-07T10:35:13.652Z,997.85
2023-05-07T10:36:13.489Z,997.88
2023-05-07T10:37:13.473Z,997.84
2023-05-07T10:38:13.471Z,997.92
2023-05-07T10:39:13.520Z,997.96
2023-05-07T10:40:13.492Z,997.89
2023-05-07T10:41:13.440Z,997.87
2023-05-07T10:42:13.482Z,997.94
2023-05-07T10:43:13.451Z,997.87
2023-05-07T10:44:13.519Z,998.01
2023-05-07T10:45:13.416Z,997.90
2023-05-07T10:46:13.480Z,997.93
2023-05-07T10:47:13.522Z,997.90
2023-05-07T10:48:27.835Z,997.91
2023-05-07T10:49:15.381Z,997.90
2023-05-07T10:50:13.448Z,997.96
2023-05-07T10:51:13.386Z,997.87
2023-05-07T10:52:13.409Z,997.94
2023-05-07T10:53:13.376Z,997.88
2023-05-07T10:54:13.342Z,997.93
2023-05-07T10:55:13.397Z,997.95
2023-05-07T10:56:13.334Z,997.90
2023-05-07T10:57:13.352Z,997.90
2023-05-07T10:58:20.062Z,997.98
2023-05-07T10:59:15.308Z,997.96
2023-05-07T11:00:13.370Z,998.04
2023-05-07T11:01:13.300Z,997.87
2023-05-07T11:02:13.362Z,998.01
2023-05-07T11:03:13.372Z,998.03
2023-05-07T11:04:13.282Z,998.07
2023-05-07T11:05:13.592Z,998.06
2023-05-07T11:06:13.267Z,998.01
2023-05-07T11:07:13.286Z,998.04
2023-05-07T11:08:13.237Z,998.06
2023-05-07T11:09:13.236Z,998.10
2023-05-07T11:10:13.253Z,998.01
2023-05-07T11:11:13.235Z,997.99
2023-05-07T11:12:13.228Z,998.07
2023-05-07T11:13:13.290Z,997.98
2023-05-07T11:14:13.203Z,997.95
2023-05-07T11:15:13.466Z,997.94
2023-05-07T11:16:13.261Z,997.97
2023-05-07T11:17:13.169Z,998.03
2023-05-07T11:18:13.183Z,998.00
2023-05-07T11:19:13.207Z,997.95
2023-05-07T11:20:13.142Z,997.85
2023-05-07T11:21:13.216Z,997.96
2023-05-07T11:22:13.131Z,997.88
2023-05-07T11:23:13.125Z,997.86
2023-05-07T11:24:13.117Z,997.92
2023-05-07T11:25:13.269Z,997.80
2023-05-07T11:26:13.116Z,997.90
2023-05-07T11:27:13.086Z,997.85
2023-05-07T11:28:13.081Z,997.90
2023-05-07T11:29:13.068Z,998.01
2023-05-07T11:30:13.089Z,998.00
2023-05-07T11:31:13.103Z,997.86
2023-05-07T11:32:13.196Z,997.88
2023-05-07T11:33:13.065Z,997.99
2023-05-07T11:34:13.034Z,997.90
2023-05-07T11:35:13.365Z,997.89
2023-05-07T11:36:13.033Z,997.93
2023-05-07T11:37:13.009Z,997.83
2023-05-07T11:38:13.006Z,997.89
2023-05-07T11:39:13.003Z,997.92
2023-05-07T11:40:44.928Z,997.92
2023-05-07T11:41:12.989Z,997.92
2023-05-07T11:42:12.967Z,998.00
2023-05-07T11:43:12.960Z,997.95
2023-05-07T11:44:12.953Z,997.92
2023-05-07T11:45:13.177Z,997.93
2023-05-07T11:46:12.983Z,997.92
2023-05-07T11:47:12.929Z,997.93
2023-05-07T11:48:13.027Z,997.84
2023-05-07T11:49:12.941Z,997.93
2023-05-07T11:51:00.437Z,997.97
2023-05-07T11:51:13.499Z,997.91
2023-05-07T11:52:12.903Z,997.88
2023-05-07T11:53:13.989Z,997.95
2023-05-07T11:54:13.959Z,997.93
2023-05-07T11:55:13.105Z,998.01
2023-05-07T11:56:12.863Z,998.07
2023-05-07T11:57:12.871Z,997.99
2023-05-07T11:58:12.915Z,997.97
2023-05-07T11:59:12.864Z,997.88
2023-05-07T12:00:12.820Z,997.94
2023-05-07T12:01:12.829Z,997.90
2023-05-07T12:02:12.876Z,998.01
2023-05-07T12:03:13.438Z,997.97
2023-05-07T12:04:12.946Z,998.00
2023-05-07T12:05:13.070Z,997.97
2023-05-07T12:06:12.862Z,998.01
2023-05-07T12:07:12.788Z,998.00
2023-05-07T12:08:12.854Z,998.02
2023-05-07T12:09:12.758Z,997.97
2023-05-07T12:10:12.752Z,998.01
2023-05-07T12:11:12.749Z,998.00
2023-05-07T12:12:12.761Z,997.98
2023-05-07T12:13:12.807Z,998.05
2023-05-07T12:14:12.780Z,998.12
2023-05-07T12:15:12.990Z,998.05
2023-05-07T12:16:12.714Z,998.01
2023-05-07T12:17:12.792Z,997.99
2023-05-07T12:18:12.768Z,998.08
2023-05-07T12:19:15.048Z,998.01
2023-05-07T12:20:13.281Z,998.02
2023-05-07T12:21:12.658Z,997.90
2023-05-07T12:22:12.677Z,997.92
2023-05-07T12:23:12.673Z,997.89
2023-05-07T12:24:12.758Z,997.91
2023-05-07T12:25:12.848Z,997.83
2023-05-07T12:26:12.626Z,997.94
2023-05-07T12:27:12.646Z,998.00
2023-05-07T12:28:12.654Z,997.79
2023-05-07T12:29:12.616Z,997.91